メインページ
METAR-TAF:

METAR-TAF

空港 :

フェリーニヒング, 南アフリカ共和国

緯度: 26-34-29S, 経度: 027-57-45E, 海抜: 1483m

現時点の気象観測

当レポートは43分前の23:00(UTC)に作成
北西の風 3kt
気温 6°C
湿度 70%
気圧 1035 hPa

METAR: FAVV 232300Z AUTO 32003KT //// // ////// 06/01 Q1035

時間: 01:43 (23:43 UTC)


TAF: 見つかりません

4,000以上の空港の気象観測と天気予報(METAR報とTAF報)

利用可能な観測所は地図上に黄色い丸と赤い丸で示す。

丸の上にカーソルを重ねると観測所名を参照できる。

次にクリックすると気象観測と天気予報を参照できる。

マップの切り替え:黒色「×」印の緑ボタンをクリックして拡大、「-」印の緑ボタンをクリックして縮小、緑色の三角印をクリックして隣りの地図に切り替え


METAR-TAF: